sensor_id;sensor_type;location;lat;lon;timestamp;pressure;altitude;pressure_sealevel;temperature;humidity
49030;BME280;43337;52.070;4.508;2023-03-13T00:01:16;100248.50;;;8.49;100.00
49030;BME280;43337;52.070;4.508;2023-03-13T00:03:41;100232.00;;;8.47;100.00
49030;BME280;43337;52.070;4.508;2023-03-13T00:06:07;100225.69;;;8.51;100.00
49030;BME280;43337;52.070;4.508;2023-03-13T00:08:33;100212.50;;;8.52;100.00
49030;BME280;43337;52.070;4.508;2023-03-13T00:11:02;100209.88;;;8.52;100.00
49030;BME280;43337;52.070;4.508;2023-03-13T00:13:28;100176.31;;;8.40;100.00
49030;BME280;43337;52.070;4.508;2023-03-13T00:16:08;100195.84;;;8.53;100.00
49030;BME280;43337;52.070;4.508;2023-03-13T00:18:35;100168.94;;;8.48;100.00
49030;BME280;43337;52.070;4.508;2023-03-13T00:21:03;100168.59;;;8.56;100.00
49030;BME280;43337;52.070;4.508;2023-03-13T00:23:28;100128.34;;;8.37;100.00
49030;BME280;43337;52.070;4.508;2023-03-13T00:26:14;100147.97;;;8.48;100.00
49030;BME280;43337;52.070;4.508;2023-03-13T00:28:41;100154.22;;;8.65;100.00
49030;BME280;43337;52.070;4.508;2023-03-13T00:31:09;100144.50;;;8.67;100.00
49030;BME280;43337;52.070;4.508;2023-03-13T00:33:36;100138.28;;;8.69;100.00
49030;BME280;43337;52.070;4.508;2023-03-13T00:36:05;100130.34;;;8.71;100.00
49030;BME280;43337;52.070;4.508;2023-03-13T00:38:31;100136.38;;;8.73;100.00
49030;BME280;43337;52.070;4.508;2023-03-13T00:41:01;100071.97;;;8.47;100.00
49030;BME280;43337;52.070;4.508;2023-03-13T00:43:27;100093.88;;;8.65;100.00
49030;BME280;43337;52.070;4.508;2023-03-13T00:45:52;100111.88;;;8.72;100.00
49030;BME280;43337;52.070;4.508;2023-03-13T00:48:18;100086.34;;;8.76;100.00
49030;BME280;43337;52.070;4.508;2023-03-13T00:50:43;100070.97;;;8.68;100.00
49030;BME280;43337;52.070;4.508;2023-03-13T00:53:08;100079.41;;;8.75;100.00
49030;BME280;43337;52.070;4.508;2023-03-13T00:55:34;100075.09;;;8.74;100.00
49030;BME280;43337;52.070;4.508;2023-03-13T00:57:59;100059.97;;;8.79;100.00
49030;BME280;43337;52.070;4.508;2023-03-13T01:00:24;100063.28;;;8.83;100.00
49030;BME280;43337;52.070;4.508;2023-03-13T01:02:50;100012.53;;;8.65;100.00
49030;BME280;43337;52.070;4.508;2023-03-13T01:05:15;100067.94;;;8.95;100.00
49030;BME280;43337;52.070;4.508;2023-03-13T01:07:41;100056.53;;;8.96;100.00
49030;BME280;43337;52.070;4.508;2023-03-13T01:10:06;100027.34;;;8.85;100.00
49030;BME280;43337;52.070;4.508;2023-03-13T01:12:32;100032.41;;;8.88;100.00
49030;BME280;43337;52.070;4.508;2023-03-13T01:14:58;100024.34;;;8.92;100.00
49030;BME280;43337;52.070;4.508;2023-03-13T01:17:23;100043.88;;;9.04;100.00
49030;BME280;43337;52.070;4.508;2023-03-13T01:19:48;99986.25;;;8.84;100.00
49030;BME280;43337;52.070;4.508;2023-03-13T01:22:14;100020.03;;;9.09;100.00
49030;BME280;43337;52.070;4.508;2023-03-13T01:24:39;100016.00;;;9.01;100.00
49030;BME280;43337;52.070;4.508;2023-03-13T01:27:05;99982.09;;;8.97;100.00
49030;BME280;43337;52.070;4.508;2023-03-13T01:29:30;100007.66;;;9.11;100.00
49030;BME280;43337;52.070;4.508;2023-03-13T01:31:55;100001.34;;;9.15;100.00
49030;BME280;43337;52.070;4.508;2023-03-13T01:34:21;100009.00;;;9.19;100.00
49030;BME280;43337;52.070;4.508;2023-03-13T01:36:46;99983.13;;;9.12;100.00
49030;BME280;43337;52.070;4.508;2023-03-13T01:39:15;99998.88;;;9.29;100.00
49030;BME280;43337;52.070;4.508;2023-03-13T01:41:41;99973.63;;;9.26;100.00
49030;BME280;43337;52.070;4.508;2023-03-13T01:44:20;99988.81;;;9.37;100.00
49030;BME280;43337;52.070;4.508;2023-03-13T01:46:46;99972.91;;;9.40;100.00
49030;BME280;43337;52.070;4.508;2023-03-13T01:49:17;99948.09;;;9.28;100.00
49030;BME280;43337;52.070;4.508;2023-03-13T01:51:50;99957.72;;;9.45;100.00
49030;BME280;43337;52.070;4.508;2023-03-13T01:54:36;99952.25;;;9.50;100.00
49030;BME280;43337;52.070;4.508;2023-03-13T01:59:40;99935.41;;;9.54;100.00
49030;BME280;43337;52.070;4.508;2023-03-13T02:02:08;99906.28;;;9.41;100.00
49030;BME280;43337;52.070;4.508;2023-03-13T02:04:39;99921.59;;;9.50;100.00
49030;BME280;43337;52.070;4.508;2023-03-13T02:07:10;99932.28;;;9.63;100.00
49030;BME280;43337;52.070;4.508;2023-03-13T02:09:38;99892.94;;;9.46;100.00
49030;BME280;43337;52.070;4.508;2023-03-13T02:12:12;99917.88;;;9.70;100.00
49030;BME280;43337;52.070;4.508;2023-03-13T02:14:41;99888.84;;;9.56;100.00
49030;BME280;43337;52.070;4.508;2023-03-13T02:17:08;99871.50;;;9.53;100.00
49030;BME280;43337;52.070;4.508;2023-03-13T02:27:51;99880.94;;;9.89;100.00
49030;BME280;43337;52.070;4.508;2023-03-13T02:30:19;99878.88;;;9.78;100.00
49030;BME280;43337;52.070;4.508;2023-03-13T02:32:46;99861.25;;;9.81;100.00
49030;BME280;43337;52.070;4.508;2023-03-13T02:35:14;99888.56;;;9.94;100.00
49030;BME280;43337;52.070;4.508;2023-03-13T02:37:41;99900.97;;;10.08;100.00
49030;BME280;43337;52.070;4.508;2023-03-13T02:40:15;99892.22;;;10.07;100.00
49030;BME280;43337;52.070;4.508;2023-03-13T02:42:43;99878.56;;;10.00;100.00
49030;BME280;43337;52.070;4.508;2023-03-13T02:45:13;99904.75;;;10.18;100.00
49030;BME280;43337;52.070;4.508;2023-03-13T02:47:38;99880.34;;;10.16;100.00
49030;BME280;43337;52.070;4.508;2023-03-13T02:50:04;99859.13;;;10.03;100.00
49030;BME280;43337;52.070;4.508;2023-03-13T02:52:33;99873.38;;;10.15;100.00
49030;BME280;43337;52.070;4.508;2023-03-13T02:55:13;99887.56;;;10.28;100.00
49030;BME280;43337;52.070;4.508;2023-03-13T02:57:42;99876.88;;;10.31;100.00
49030;BME280;43337;52.070;4.508;2023-03-13T03:00:08;99871.50;;;10.33;100.00
49030;BME280;43337;52.070;4.508;2023-03-13T03:02:37;99847.72;;;10.18;100.00
49030;BME280;43337;52.070;4.508;2023-03-13T03:05:02;99842.75;;;10.30;100.00
49030;BME280;43337;52.070;4.508;2023-03-13T03:07:28;99851.13;;;10.36;100.00
49030;BME280;43337;52.070;4.508;2023-03-13T03:09:54;99860.13;;;10.48;100.00
49030;BME280;43337;52.070;4.508;2023-03-13T03:12:20;99837.53;;;10.44;100.00
49030;BME280;43337;52.070;4.508;2023-03-13T03:14:45;99824.00;;;10.36;100.00
49030;BME280;43337;52.070;4.508;2023-03-13T03:17:11;99841.19;;;10.57;100.00
49030;BME280;43337;52.070;4.508;2023-03-13T03:19:36;99827.41;;;10.52;100.00
49030;BME280;43337;52.070;4.508;2023-03-13T03:22:02;99844.44;;;10.61;100.00
49030;BME280;43337;52.070;4.508;2023-03-13T03:24:27;99844.16;;;10.51;100.00
49030;BME280;43337;52.070;4.508;2023-03-13T03:26:52;99859.72;;;10.70;100.00
49030;BME280;43337;52.070;4.508;2023-03-13T03:29:18;99818.06;;;10.62;100.00
49030;BME280;43337;52.070;4.508;2023-03-13T03:31:43;99843.34;;;10.65;100.00
49030;BME280;43337;52.070;4.508;2023-03-13T03:34:09;99848.56;;;10.81;100.00
49030;BME280;43337;52.070;4.508;2023-03-13T03:36:34;99853.81;;;10.81;100.00
49030;BME280;43337;52.070;4.508;2023-03-13T03:39:00;99834.41;;;10.67;100.00
49030;BME280;43337;52.070;4.508;2023-03-13T03:41:25;99843.28;;;10.81;100.00
49030;BME280;43337;52.070;4.508;2023-03-13T03:43:51;99844.88;;;10.83;100.00
49030;BME280;43337;52.070;4.508;2023-03-13T03:46:16;99848.47;;;10.82;100.00
49030;BME280;43337;52.070;4.508;2023-03-13T03:48:42;99808.09;;;10.67;100.00
49030;BME280;43337;52.070;4.508;2023-03-13T03:51:07;99789.56;;;10.55;100.00
49030;BME280;43337;52.070;4.508;2023-03-13T03:53:33;99810.72;;;10.67;100.00
49030;BME280;43337;52.070;4.508;2023-03-13T03:55:58;99820.97;;;10.72;100.00
49030;BME280;43337;52.070;4.508;2023-03-13T03:58:24;99797.56;;;10.67;100.00
49030;BME280;43337;52.070;4.508;2023-03-13T04:00:49;99838.50;;;10.87;100.00
49030;BME280;43337;52.070;4.508;2023-03-13T04:03:15;99776.28;;;10.56;100.00
49030;BME280;43337;52.070;4.508;2023-03-13T04:05:41;99827.13;;;10.87;100.00
49030;BME280;43337;52.070;4.508;2023-03-13T04:08:08;99832.38;;;10.87;100.00
49030;BME280;43337;52.070;4.508;2023-03-13T04:10:33;99789.59;;;10.69;100.00
49030;BME280;43337;52.070;4.508;2023-03-13T04:13:00;99812.63;;;10.80;100.00
49030;BME280;43337;52.070;4.508;2023-03-13T04:15:26;99818.00;;;10.78;100.00
49030;BME280;43337;52.070;4.508;2023-03-13T04:17:52;99814.13;;;10.84;100.00
49030;BME280;43337;52.070;4.508;2023-03-13T04:20:17;99819.31;;;10.85;100.00
49030;BME280;43337;52.070;4.508;2023-03-13T04:22:42;99802.75;;;10.69;100.00
49030;BME280;43337;52.070;4.508;2023-03-13T04:25:09;99789.00;;;10.64;100.00
49030;BME280;43337;52.070;4.508;2023-03-13T04:27:34;99817.63;;;10.84;100.00
49030;BME280;43337;52.070;4.508;2023-03-13T04:30:00;99777.91;;;10.59;100.00
49030;BME280;43337;52.070;4.508;2023-03-13T04:32:26;99804.66;;;10.81;100.00
49030;BME280;43337;52.070;4.508;2023-03-13T04:34:52;99770.78;;;10.75;100.00
49030;BME280;43337;52.070;4.508;2023-03-13T04:37:17;99791.97;;;10.88;100.00
49030;BME280;43337;52.070;4.508;2023-03-13T04:39:43;99798.25;;;10.85;100.00
49030;BME280;43337;52.070;4.508;2023-03-13T04:42:10;99788.94;;;10.94;100.00
49030;BME280;43337;52.070;4.508;2023-03-13T04:44:35;99788.88;;;10.95;100.00
49030;BME280;43337;52.070;4.508;2023-03-13T04:47:01;99792.59;;;10.91;100.00
49030;BME280;43337;52.070;4.508;2023-03-13T04:49:27;99777.28;;;10.98;100.00
49030;BME280;43337;52.070;4.508;2023-03-13T04:51:52;99744.75;;;10.85;100.00
49030;BME280;43337;52.070;4.508;2023-03-13T04:54:18;99767.31;;;11.03;100.00
49030;BME280;43337;52.070;4.508;2023-03-13T04:56:43;99752.00;;;10.95;100.00
49030;BME280;43337;52.070;4.508;2023-03-13T04:59:10;99754.91;;;11.05;100.00
49030;BME280;43337;52.070;4.508;2023-03-13T05:01:36;99749.38;;;10.95;100.00
49030;BME280;43337;52.070;4.508;2023-03-13T05:04:02;99723.41;;;10.89;100.00
49030;BME280;43337;52.070;4.508;2023-03-13T05:06:27;99752.56;;;11.00;100.00
49030;BME280;43337;52.070;4.508;2023-03-13T05:08:53;99732.03;;;10.91;100.00
49030;BME280;43337;52.070;4.508;2023-03-13T05:11:18;99758.94;;;11.11;100.00
49030;BME280;43337;52.070;4.508;2023-03-13T05:13:43;99709.19;;;10.92;100.00
49030;BME280;43337;52.070;4.508;2023-03-13T05:16:09;99703.16;;;11.04;100.00
49030;BME280;43337;52.070;4.508;2023-03-13T05:18:34;99705.16;;;11.00;100.00
49030;BME280;43337;52.070;4.508;2023-03-13T05:21:01;99703.16;;;11.04;100.00
49030;BME280;43337;52.070;4.508;2023-03-13T05:23:26;99689.34;;;11.00;100.00
49030;BME280;43337;52.070;4.508;2023-03-13T05:25:51;99696.75;;;11.08;100.00
49030;BME280;43337;52.070;4.508;2023-03-13T05:28:17;99703.78;;;11.22;100.00
49030;BME280;43337;52.070;4.508;2023-03-13T05:30:42;99725.63;;;11.24;100.00
49030;BME280;43337;52.070;4.508;2023-03-13T05:33:08;99699.75;;;11.16;100.00
49030;BME280;43337;52.070;4.508;2023-03-13T05:35:33;99669.75;;;11.05;100.00
49030;BME280;43337;52.070;4.508;2023-03-13T05:37:58;99703.50;;;11.27;100.00
49030;BME280;43337;52.070;4.508;2023-03-13T05:40:24;99698.88;;;11.30;100.00
49030;BME280;43337;52.070;4.508;2023-03-13T05:42:49;99664.66;;;11.16;100.00
49030;BME280;43337;52.070;4.508;2023-03-13T05:45:15;99707.63;;;11.31;100.00
49030;BME280;43337;52.070;4.508;2023-03-13T05:47:40;99704.16;;;11.30;100.00
49030;BME280;43337;52.070;4.508;2023-03-13T05:50:06;99672.56;;;11.16;100.00
49030;BME280;43337;52.070;4.508;2023-03-13T05:52:32;99688.13;;;11.33;100.00
49030;BME280;43337;52.070;4.508;2023-03-13T05:54:58;99698.41;;;11.38;100.00
49030;BME280;43337;52.070;4.508;2023-03-13T05:57:24;99699.13;;;11.40;100.00
49030;BME280;43337;52.070;4.508;2023-03-13T05:59:49;99697.25;;;11.42;100.00
49030;BME280;43337;52.070;4.508;2023-03-13T06:02:15;99668.25;;;11.15;100.00
49030;BME280;43337;52.070;4.508;2023-03-13T06:04:40;99688.34;;;11.30;100.00
49030;BME280;43337;52.070;4.508;2023-03-13T06:07:06;99678.00;;;11.27;100.00
49030;BME280;43337;52.070;4.508;2023-03-13T06:09:31;99695.59;;;11.27;100.00
49030;BME280;43337;52.070;4.508;2023-03-13T06:11:56;99695.00;;;11.36;100.00
49030;BME280;43337;52.070;4.508;2023-03-13T06:14:22;99682.50;;;11.25;100.00
49030;BME280;43337;52.070;4.508;2023-03-13T06:16:48;99703.66;;;11.38;100.00
49030;BME280;43337;52.070;4.508;2023-03-13T06:19:14;99694.47;;;11.31;100.00
49030;BME280;43337;52.070;4.508;2023-03-13T06:21:39;99680.38;;;11.17;100.00
49030;BME280;43337;52.070;4.508;2023-03-13T06:24:05;99699.72;;;11.31;100.00
49030;BME280;43337;52.070;4.508;2023-03-13T06:26:30;99709.69;;;11.25;100.00
49030;BME280;43337;52.070;4.508;2023-03-13T06:28:59;99712.56;;;11.22;100.00
49030;BME280;43337;52.070;4.508;2023-03-13T06:31:24;99691.03;;;11.02;100.00
49030;BME280;43337;52.070;4.508;2023-03-13T06:33:53;99694.69;;;10.99;100.00
49030;BME280;43337;52.070;4.508;2023-03-13T06:36:20;99689.72;;;10.94;100.00
49030;BME280;43337;52.070;4.508;2023-03-13T06:38:45;99725.81;;;11.07;100.00
49030;BME280;43337;52.070;4.508;2023-03-13T06:41:11;99712.94;;;11.02;100.00
49030;BME280;43337;52.070;4.508;2023-03-13T06:43:36;99678.06;;;10.70;100.00
49030;BME280;43337;52.070;4.508;2023-03-13T06:46:05;99672.88;;;10.68;100.00
49030;BME280;43337;52.070;4.508;2023-03-13T06:48:34;99713.34;;;10.82;100.00
49030;BME280;43337;52.070;4.508;2023-03-13T06:51:01;99718.88;;;10.91;100.00
49030;BME280;43337;52.070;4.508;2023-03-13T06:53:26;99679.75;;;10.71;100.00
49030;BME280;43337;52.070;4.508;2023-03-13T06:55:52;99711.25;;;10.87;100.00
49030;BME280;43337;52.070;4.508;2023-03-13T06:58:18;99706.38;;;10.81;100.00
49030;BME280;43337;52.070;4.508;2023-03-13T07:00:43;99718.78;;;10.93;100.00
49030;BME280;43337;52.070;4.508;2023-03-13T07:03:12;99695.56;;;10.85;100.00
49030;BME280;43337;52.070;4.508;2023-03-13T07:05:38;99684.06;;;10.86;100.00
49030;BME280;43337;52.070;4.508;2023-03-13T07:08:04;99699.69;;;10.89;100.00
49030;BME280;43337;52.070;4.508;2023-03-13T07:10:30;99674.22;;;10.75;100.00
49030;BME280;43337;52.070;4.508;2023-03-13T07:12:55;99695.63;;;10.84;100.00
49030;BME280;43337;52.070;4.508;2023-03-13T07:15:21;99693.13;;;10.82;100.00
49030;BME280;43337;52.070;4.508;2023-03-13T07:17:46;99671.78;;;10.72;100.00
49030;BME280;43337;52.070;4.508;2023-03-13T07:20:12;99695.09;;;10.93;100.00
49030;BME280;43337;52.070;4.508;2023-03-13T07:22:37;99702.22;;;10.91;100.00
49030;BME280;43337;52.070;4.508;2023-03-13T07:25:04;99696.41;;;10.71;100.00
49030;BME280;43337;52.070;4.508;2023-03-13T07:27:30;99704.59;;;10.95;100.00
49030;BME280;43337;52.070;4.508;2023-03-13T07:29:55;99736.47;;;11.05;100.00
49030;BME280;43337;52.070;4.508;2023-03-13T07:32:21;99700.53;;;11.04;100.00
49030;BME280;43337;52.070;4.508;2023-03-13T07:34:47;99715.00;;;11.11;100.00
49030;BME280;43337;52.070;4.508;2023-03-13T07:37:14;99718.38;;;11.13;100.00
49030;BME280;43337;52.070;4.508;2023-03-13T07:39:40;99715.94;;;11.10;100.00
49030;BME280;43337;52.070;4.508;2023-03-13T07:42:07;99700.88;;;11.12;100.00
49030;BME280;43337;52.070;4.508;2023-03-13T07:44:33;99702.00;;;11.22;100.00
49030;BME280;43337;52.070;4.508;2023-03-13T07:46:59;99689.56;;;11.24;100.00
49030;BME280;43337;52.070;4.508;2023-03-13T07:49:24;99677.88;;;11.29;100.00
49030;BME280;43337;52.070;4.508;2023-03-13T07:51:50;99664.00;;;11.12;100.00
49030;BME280;43337;52.070;4.508;2023-03-13T07:54:15;99696.59;;;11.38;100.00
49030;BME280;43337;52.070;4.508;2023-03-13T07:56:41;99695.47;;;11.42;100.00
49030;BME280;43337;52.070;4.508;2023-03-13T07:59:07;99717.63;;;11.53;100.00
49030;BME280;43337;52.070;4.508;2023-03-13T08:01:32;99694.03;;;11.51;100.00
49030;BME280;43337;52.070;4.508;2023-03-13T08:03:58;99686.56;;;11.58;100.00
49030;BME280;43337;52.070;4.508;2023-03-13T08:06:29;99685.06;;;11.54;100.00
49030;BME280;43337;52.070;4.508;2023-03-13T08:08:56;99669.09;;;11.42;100.00
49030;BME280;43337;52.070;4.508;2023-03-13T08:11:24;99670.00;;;11.56;100.00
49030;BME280;43337;52.070;4.508;2023-03-13T08:13:50;99687.00;;;11.64;100.00
49030;BME280;43337;52.070;4.508;2023-03-13T08:16:21;99655.13;;;11.55;100.00
49030;BME280;43337;52.070;4.508;2023-03-13T08:18:49;99696.41;;;11.68;100.00
49030;BME280;43337;52.070;4.508;2023-03-13T08:21:18;99692.72;;;11.71;100.00
49030;BME280;43337;52.070;4.508;2023-03-13T08:23:45;99639.75;;;11.61;100.00
49030;BME280;43337;52.070;4.508;2023-03-13T08:26:13;99675.66;;;11.77;100.00
49030;BME280;43337;52.070;4.508;2023-03-13T08:28:40;99676.19;;;11.82;100.00
49030;BME280;43337;52.070;4.508;2023-03-13T08:33:35;99663.38;;;11.90;100.00
49030;BME280;43337;52.070;4.508;2023-03-13T08:36:18;99640.03;;;11.84;100.00
49030;BME280;43337;52.070;4.508;2023-03-13T08:38:45;99663.25;;;11.91;100.00
49030;BME280;43337;52.070;4.508;2023-03-13T08:41:22;99614.47;;;11.71;100.00
49030;BME280;43337;52.070;4.508;2023-03-13T08:43:50;99631.72;;;11.90;100.00
49030;BME280;43337;52.070;4.508;2023-03-13T08:46:16;99657.47;;;11.99;100.00
49030;BME280;43337;52.070;4.508;2023-03-13T08:48:42;99651.91;;;12.16;100.00
49030;BME280;43337;52.070;4.508;2023-03-13T08:51:09;99598.72;;;11.97;100.00
49030;BME280;43337;52.070;4.508;2023-03-13T08:53:36;99626.47;;;12.15;100.00
49030;BME280;43337;52.070;4.508;2023-03-13T08:56:03;99669.56;;;12.41;100.00
49030;BME280;43337;52.070;4.508;2023-03-13T08:58:30;99650.75;;;12.33;100.00
49030;BME280;43337;52.070;4.508;2023-03-13T09:01:04;99646.66;;;12.42;100.00
49030;BME280;43337;52.070;4.508;2023-03-13T09:03:30;99638.91;;;12.52;100.00
49030;BME280;43337;52.070;4.508;2023-03-13T09:05:57;99652.75;;;12.55;100.00
49030;BME280;43337;52.070;4.508;2023-03-13T09:08:23;99597.50;;;12.52;100.00
49030;BME280;43337;52.070;4.508;2023-03-13T09:10:57;99589.91;;;12.60;100.00
49030;BME280;43337;52.070;4.508;2023-03-13T09:13:23;99618.53;;;12.66;100.00
49030;BME280;43337;52.070;4.508;2023-03-13T09:15:59;99608.59;;;12.70;100.00
49030;BME280;43337;52.070;4.508;2023-03-13T09:18:26;99599.81;;;12.69;100.00
49030;BME280;43337;52.070;4.508;2023-03-13T09:20:51;99588.38;;;12.82;100.00
49030;BME280;43337;52.070;4.508;2023-03-13T09:23:18;99579.94;;;12.77;100.00
49030;BME280;43337;52.070;4.508;2023-03-13T09:25:44;99589.50;;;12.90;100.00
49030;BME280;43337;52.070;4.508;2023-03-13T09:28:10;99595.41;;;12.94;100.00
49030;BME280;43337;52.070;4.508;2023-03-13T09:30:35;99612.63;;;13.00;100.00
49030;BME280;43337;52.070;4.508;2023-03-13T09:33:01;99574.41;;;12.92;100.00
49030;BME280;43337;52.070;4.508;2023-03-13T09:35:26;99567.75;;;12.87;100.00
49030;BME280;43337;52.070;4.508;2023-03-13T09:37:51;99578.16;;;13.01;100.00
49030;BME280;43337;52.070;4.508;2023-03-13T09:40:19;99591.59;;;13.22;100.00
49030;BME280;43337;52.070;4.508;2023-03-13T09:42:49;99556.75;;;13.17;100.00
49030;BME280;43337;52.070;4.508;2023-03-13T09:45:38;99558.00;;;13.24;100.00
49030;BME280;43337;52.070;4.508;2023-03-13T09:51:00;99554.53;;;13.24;100.00
49030;BME280;43337;52.070;4.508;2023-03-13T09:53:42;99569.69;;;13.33;100.00
49030;BME280;43337;52.070;4.508;2023-03-13T09:56:16;99600.47;;;13.34;100.00
49030;BME280;43337;52.070;4.508;2023-03-13T09:58:53;99558.84;;;13.25;100.00
49030;BME280;43337;52.070;4.508;2023-03-13T10:01:23;99558.06;;;13.35;100.00
49030;BME280;43337;52.070;4.508;2023-03-13T10:04:20;99565.56;;;13.41;100.00
49030;BME280;43337;52.070;4.508;2023-03-13T10:06:50;99555.69;;;13.43;100.00
49030;BME280;43337;52.070;4.508;2023-03-13T10:09:28;99548.19;;;13.37;100.00
49030;BME280;43337;52.070;4.508;2023-03-13T10:12:15;99557.97;;;13.48;100.00
49030;BME280;43337;52.070;4.508;2023-03-13T10:15:26;99566.13;;;13.45;100.00
49030;BME280;43337;52.070;4.508;2023-03-13T10:17:54;99553.31;;;13.52;100.00
49030;BME280;43337;52.070;4.508;2023-03-13T10:20:28;99535.63;;;13.52;100.00
49030;BME280;43337;52.070;4.508;2023-03-13T10:25:41;99572.06;;;13.60;100.00
49030;BME280;43337;52.070;4.508;2023-03-13T10:28:12;99552.75;;;13.71;100.00
49030;BME280;43337;52.070;4.508;2023-03-13T10:30:45;99530.50;;;13.62;100.00
49030;BME280;43337;52.070;4.508;2023-03-13T10:33:18;99551.69;;;13.73;100.00
49030;BME280;43337;52.070;4.508;2023-03-13T10:35:44;99537.03;;;13.69;100.00
49030;BME280;43337;52.070;4.508;2023-03-13T10:40:37;99541.09;;;13.73;100.00
49030;BME280;43337;52.070;4.508;2023-03-13T10:43:17;99542.41;;;13.67;100.00
49030;BME280;43337;52.070;4.508;2023-03-13T10:45:43;99530.75;;;13.70;100.00
49030;BME280;43337;52.070;4.508;2023-03-13T10:48:14;99536.19;;;13.68;100.00
49030;BME280;43337;52.070;4.508;2023-03-13T10:50:44;99547.25;;;13.74;100.00
49030;BME280;43337;52.070;4.508;2023-03-13T10:53:33;99547.97;;;13.87;100.00
49030;BME280;43337;52.070;4.508;2023-03-13T10:56:13;99569.38;;;13.95;100.00
49030;BME280;43337;52.070;4.508;2023-03-13T10:58:51;99550.41;;;14.01;100.00
49030;BME280;43337;52.070;4.508;2023-03-13T11:01:23;99555.47;;;14.04;100.00
49030;BME280;43337;52.070;4.508;2023-03-13T11:03:52;99566.91;;;14.05;100.00
49030;BME280;43337;52.070;4.508;2023-03-13T11:06:27;99552.91;;;14.03;100.00
49030;BME280;43337;52.070;4.508;2023-03-13T11:09:13;99530.81;;;14.04;100.00
49030;BME280;43337;52.070;4.508;2023-03-13T11:11:53;99542.72;;;14.09;100.00
49030;BME280;43337;52.070;4.508;2023-03-13T11:14:24;99530.59;;;14.07;100.00
49030;BME280;43337;52.070;4.508;2023-03-13T11:24:45;99529.13;;;14.14;100.00
49030;BME280;43337;52.070;4.508;2023-03-13T11:27:15;99558.97;;;14.27;100.00
49030;BME280;43337;52.070;4.508;2023-03-13T11:35:06;99550.44;;;14.46;100.00
49030;BME280;43337;52.070;4.508;2023-03-13T11:37:37;99541.91;;;14.54;100.00
49030;BME280;43337;52.070;4.508;2023-03-13T11:40:29;99566.94;;;14.50;100.00
49030;BME280;43337;52.070;4.508;2023-03-13T11:46:02;99525.88;;;14.55;100.00
49030;BME280;43337;52.070;4.508;2023-03-13T11:54:44;99513.84;;;14.95;100.00
49030;BME280;43337;52.070;4.508;2023-03-13T11:57:26;99537.22;;;15.01;100.00
49030;BME280;43337;52.070;4.508;2023-03-13T12:02:39;99511.09;;;14.96;100.00
49030;BME280;43337;52.070;4.508;2023-03-13T12:05:08;99542.94;;;14.85;100.00
49030;BME280;43337;52.070;4.508;2023-03-13T12:07:38;99541.97;;;14.75;100.00
49030;BME280;43337;52.070;4.508;2023-03-13T12:10:12;99528.50;;;14.67;100.00
49030;BME280;43337;52.070;4.508;2023-03-13T12:13:04;99512.84;;;14.63;100.00
49030;BME280;43337;52.070;4.508;2023-03-13T12:18:04;99507.78;;;14.72;100.00
49030;BME280;43337;52.070;4.508;2023-03-13T12:20:45;99500.69;;;14.72;100.00
49030;BME280;43337;52.070;4.508;2023-03-13T12:26:16;99525.47;;;14.82;100.00
49030;BME280;43337;52.070;4.508;2023-03-13T12:29:36;99509.59;;;14.71;100.00
49030;BME280;43337;52.070;4.508;2023-03-13T12:31:39;99521.91;;;14.61;100.00
49030;BME280;43337;52.070;4.508;2023-03-13T12:34:26;99518.31;;;14.51;100.00
49030;BME280;43337;52.070;4.508;2023-03-13T12:37:00;99495.44;;;14.50;100.00
49030;BME280;43337;52.070;4.508;2023-03-13T12:39:36;99498.94;;;14.50;100.00
49030;BME280;43337;52.070;4.508;2023-03-13T12:42:29;99503.25;;;14.51;100.00
49030;BME280;43337;52.070;4.508;2023-03-13T12:44:58;99502.28;;;14.52;100.00
49030;BME280;43337;52.070;4.508;2023-03-13T12:55:36;99493.00;;;14.69;100.00
49030;BME280;43337;52.070;4.508;2023-03-13T13:00:43;99491.25;;;14.79;100.00
49030;BME280;43337;52.070;4.508;2023-03-13T13:03:30;99454.31;;;14.78;100.00
49030;BME280;43337;52.070;4.508;2023-03-13T13:06:09;99447.63;;;14.83;100.00
49030;BME280;43337;52.070;4.508;2023-03-13T13:08:41;99443.56;;;14.79;100.00
49030;BME280;43337;52.070;4.508;2023-03-13T13:32:43;99420.94;;;14.75;100.00
49030;BME280;43337;52.070;4.508;2023-03-13T13:37:50;99448.22;;;14.87;100.00
49030;BME280;43337;52.070;4.508;2023-03-13T13:40:19;99433.31;;;14.86;100.00
49030;BME280;43337;52.070;4.508;2023-03-13T13:42:51;99415.72;;;14.85;100.00
49030;BME280;43337;52.070;4.508;2023-03-13T13:45:43;99436.78;;;14.86;100.00
49030;BME280;43337;52.070;4.508;2023-03-13T13:48:14;99408.22;;;14.90;100.00
49030;BME280;43337;52.070;4.508;2023-03-13T13:51:33;99399.09;;;14.83;93.24
49030;BME280;43337;52.070;4.508;2023-03-13T13:54:01;99436.78;;;14.86;100.00
49030;BME280;43337;52.070;4.508;2023-03-13T14:01:47;99397.69;;;14.79;98.28
49030;BME280;43337;52.070;4.508;2023-03-13T14:04:46;99411.47;;;14.73;96.97
49030;BME280;43337;52.070;4.508;2023-03-13T14:07:18;99420.84;;;14.77;97.00
49030;BME280;43337;52.070;4.508;2023-03-13T14:13:09;99392.78;;;14.74;100.00
49030;BME280;43337;52.070;4.508;2023-03-13T14:15:35;99387.72;;;14.71;100.00
49030;BME280;43337;52.070;4.508;2023-03-13T14:18:11;99373.38;;;14.74;94.57
49030;BME280;43337;52.070;4.508;2023-03-13T14:20:59;99376.03;;;14.74;96.38
49030;BME280;43337;52.070;4.508;2023-03-13T14:28:53;99379.72;;;14.82;100.00
49030;BME280;43337;52.070;4.508;2023-03-13T14:31:21;99363.13;;;14.80;98.73
49030;BME280;43337;52.070;4.508;2023-03-13T14:33:47;99326.59;;;14.63;94.58
49030;BME280;43337;52.070;4.508;2023-03-13T14:36:13;99352.34;;;14.72;95.59
49030;BME280;43337;52.070;4.508;2023-03-13T14:38:38;99386.38;;;14.77;96.07
49030;BME280;43337;52.070;4.508;2023-03-13T14:41:28;99380.25;;;14.76;94.53